Terminal Aerodrome Forecast
Issued by NWS Anchorage, AK

Home | Current Version | Previous Version | Text Only | Print | Product List | Glossary On
Versions: 1 2 3 4 5 6 7 8 9 10 11 12 13 14 15 16 17 18 19 20 21 22 23 24 25 26 27 28 29 30 31 32 33 34 35 36 37 38 39 40 41 42 43 44
251
FTAK31 PAFC 191742
TAFANC
TAF
PANC 191742Z 1918/2024 20008KT 2SM -SN BR OVC020
     FM192000 18008G14KT 4SM BR VCSH OVC009
     FM192300 17014G22KT P6SM VCSH OVC019
     FM200500 17006KT 2SM BR VCSH OVC019
     FM200800 17006G14KT 5SM BR VCSH FEW003 OVC019=

USA.gov is the U.S. government's official web portal to all federal, state and local government web resources and services.